Time;durP1;ratioP1;P1;durP2;ratioP2;P2;SDS_P1;SDS_P2;PMS_P1;PMS_P2;Temp;Humidity;BMP_temperature;BMP_pressure;BME280_temperature;BME280_humidity;BME280_pressure;Samples;Min_cycle;Max_cycle;Signal;HPM_P1;HPM_P2
2021/05/14 00:02:06;;;;;;;7.72;2.92;;;;;;;8.91;86.67;95465.31;5010847;28;20415;-72
2021/05/14 00:04:32;;;;;;;11.40;3.40;;;;;;;8.90;86.19;95466.44;5008454;28;20057;-73
2021/05/14 00:06:58;;;;;;;5.93;2.60;;;;;;;8.88;86.53;95465.97;5011495;28;20045;-72
2021/05/14 00:09:24;;;;;;;8.68;3.03;;;;;;;8.88;86.35;95471.41;5010057;28;20062;-72
2021/05/14 00:11:50;;;;;;;7.45;3.05;;;;;;;8.88;85.82;95468.69;5011438;28;20050;-72
2021/05/14 00:14:17;;;;;;;5.38;2.38;;;;;;;8.91;85.18;95462.59;5010031;28;20046;-72
2021/05/14 00:16:43;;;;;;;5.55;2.78;;;;;;;8.96;85.56;95465.09;5011503;28;20048;-73
2021/05/14 00:19:10;;;;;;;8.25;2.47;;;;;;;8.96;84.88;95465.09;5010148;28;20050;-76
2021/05/14 00:21:37;;;;;;;7.30;2.80;;;;;;;8.98;84.69;95462.88;5011010;28;20176;-72
2021/05/14 00:24:04;;;;;;;5.03;2.78;;;;;;;9.03;85.03;95454.53;5010539;28;20046;-72
2021/05/14 00:26:30;;;;;;;8.25;2.92;;;;;;;9.06;84.41;95462.00;5010827;28;20045;-73
2021/05/14 00:28:56;;;;;;;5.22;2.40;;;;;;;9.06;84.54;95464.72;5011030;28;20108;-73
2021/05/14 00:31:23;;;;;;;7.53;2.92;;;;;;;9.07;83.89;95460.88;5010159;28;20798;-72
2021/05/14 00:33:49;;;;;;;6.93;3.05;;;;;;;9.06;83.68;95459.28;5011285;28;20046;-73
2021/05/14 00:36:16;;;;;;;7.50;3.15;;;;;;;9.11;84.03;95456.38;5009829;28;20108;-72
2021/05/14 00:38:42;;;;;;;4.82;2.78;;;;;;;9.12;83.53;95468.03;5011423;28;20042;-72
2021/05/14 00:41:08;;;;;;;6.00;2.60;;;;;;;9.14;82.96;95461.16;5009916;28;20412;-73
2021/05/14 00:43:34;;;;;;;7.55;3.22;;;;;;;9.12;83.00;95451.75;5011176;28;20096;-72
2021/05/14 00:46:01;;;;;;;5.20;2.40;;;;;;;9.12;82.64;95463.41;5010565;28;20081;-72
2021/05/14 00:48:28;;;;;;;6.88;3.10;;;;;;;9.12;82.81;95457.97;5010251;28;20623;-74
2021/05/14 00:50:54;;;;;;;5.47;2.20;;;;;;;9.10;82.70;95460.22;5010824;28;20403;-72
2021/05/14 00:53:21;;;;;;;5.47;2.60;;;;;;;9.11;82.44;95464.53;5010211;28;20103;-72
2021/05/14 00:55:47;;;;;;;7.38;2.72;;;;;;;9.12;82.96;95468.03;5011056;28;20046;-72
2021/05/14 00:58:13;;;;;;;7.20;3.10;;;;;;;9.12;82.22;95468.84;5009668;28;20124;-73
2021/05/14 01:00:39;;;;;;;5.07;2.67;;;;;;;9.12;82.50;95470.75;5011261;28;20053;-74
2021/05/14 01:03:05;;;;;;;4.80;2.38;;;;;;;9.08;82.31;95461.69;5009803;28;20042;-73
2021/05/14 01:05:31;;;;;;;4.50;2.38;;;;;;;9.05;81.92;95463.16;5010802;28;20046;-72
2021/05/14 01:07:58;;;;;;;5.40;2.78;;;;;;;9.00;81.98;95467.97;5013837;28;20056;-72
2021/05/14 01:10:24;;;;;;;7.38;2.90;;;;;;;9.00;81.87;95470.69;5014343;28;20041;-72
2021/05/14 01:12:50;;;;;;;5.40;2.58;;;;;;;8.94;81.57;95461.94;5013955;28;20057;-72
2021/05/14 01:15:17;;;;;;;5.20;2.53;;;;;;;8.96;82.12;95465.09;5013661;28;20046;-74
2021/05/14 01:17:43;;;;;;;4.95;2.53;;;;;;;8.95;81.97;95463.53;5014384;28;20054;-72
2021/05/14 01:20:10;;;;;;;6.55;3.30;;;;;;;8.94;81.66;95459.22;5013186;28;20057;-73
2021/05/14 01:22:37;;;;;;;5.57;2.00;;;;;;;8.92;81.69;95461.47;5014457;28;20045;-72
2021/05/14 01:25:04;;;;;;;5.78;2.60;;;;;;;8.87;81.44;95467.06;5013311;28;20160;-72
2021/05/14 01:27:30;;;;;;;4.40;2.58;;;;;;;8.84;81.38;95457.69;5014537;28;20089;-72
2021/05/14 01:29:56;;;;;;;3.13;2.00;;;;;;;8.81;80.74;95461.03;5013373;28;20057;-72
2021/05/14 01:32:22;;;;;;;4.93;2.47;;;;;;;8.82;81.18;95459.13;5013641;28;20056;-72
2021/05/14 01:34:48;;;;;;;4.28;1.85;;;;;;;8.79;81.04;95467.94;5013259;28;20180;-72
2021/05/14 01:37:14;;;;;;;5.78;2.72;;;;;;;8.76;81.14;95466.66;5013471;28;20646;-72
2021/05/14 01:39:42;;;;;;;4.03;2.47;;;;;;;8.77;80.72;95462.03;5013556;28;20133;-72
2021/05/14 01:42:08;;;;;;;6.63;2.95;;;;;;;8.73;80.43;95463.81;5013273;28;20393;-72
2021/05/14 01:44:34;;;;;;;3.88;2.50;;;;;;;8.75;80.79;95464.28;5013853;28;20104;-72
2021/05/14 01:47:00;;;;;;;4.93;2.80;;;;;;;8.75;80.76;95464.28;5013382;28;20506;-72
2021/05/14 01:49:26;;;;;;;7.50;2.25;;;;;;;8.72;80.32;95462.22;5013350;28;20125;-72
2021/05/14 01:51:52;;;;;;;3.65;2.10;;;;;;;8.73;80.50;95461.91;5012792;28;20040;-72
2021/05/14 01:54:18;;;;;;;4.85;2.47;;;;;;;8.72;80.28;95464.91;5013597;28;20069;-72
2021/05/14 01:56:46;;;;;;;4.53;2.20;;;;;;;8.71;79.94;95466.06;5013075;28;20037;-72
2021/05/14 01:59:13;;;;;;;4.18;2.45;;;;;;;8.70;80.25;95462.53;5013310;28;20057;-72
2021/05/14 02:01:39;;;;;;;3.42;2.00;;;;;;;8.65;80.07;95467.38;5013029;28;20455;-72
2021/05/14 02:04:05;;;;;;;4.82;2.67;;;;;;;8.63;80.03;95473.91;5012683;28;20722;-72
2021/05/14 02:06:31;;;;;;;5.82;2.17;;;;;;;8.65;80.30;95475.50;5013180;28;20100;-73
2021/05/14 02:08:57;;;;;;;4.80;2.22;;;;;;;8.64;80.00;95474.72;5012695;28;20045;-73
2021/05/14 02:11:23;;;;;;;3.85;2.20;;;;;;;8.70;80.29;95457.13;5012976;28;20075;-72
2021/05/14 02:13:50;;;;;;;6.43;2.60;;;;;;;8.70;80.11;95470.69;5012699;28;20121;-72
2021/05/14 02:16:16;;;;;;;5.88;2.30;;;;;;;8.74;79.71;95477.06;5013285;28;20463;-72
2021/05/14 02:18:44;;;;;;;4.60;2.33;;;;;;;8.80;79.65;95464.09;5011554;28;20038;-73
2021/05/14 02:21:10;;;;;;;4.90;2.30;;;;;;;8.76;79.23;95455.81;5011585;28;20060;-73
2021/05/14 02:23:37;;;;;;;3.97;2.00;;;;;;;8.80;79.45;95466.81;5012560;28;20065;-72
2021/05/14 02:26:03;;;;;;;5.28;2.70;;;;;;;8.79;78.45;95470.66;5012772;28;20088;-73
2021/05/14 02:28:29;;;;;;;3.90;1.88;;;;;;;8.81;79.26;95468.38;5012674;28;20038;-72
2021/05/14 02:30:56;;;;;;;6.68;2.63;;;;;;;8.87;79.20;95470.63;5012944;28;20096;-72
2021/05/14 02:33:22;;;;;;;4.57;2.30;;;;;;;8.89;78.66;95470.28;5012420;28;20064;-73
2021/05/14 02:35:48;;;;;;;4.93;2.03;;;;;;;8.88;78.26;95468.69;5012768;28;20046;-74
2021/05/14 02:38:14;;;;;;;3.50;2.05;;;;;;;8.88;78.04;95474.13;5012929;28;20096;-72
2021/05/14 02:40:41;;;;;;;4.18;2.45;;;;;;;8.82;78.08;95470.81;5012058;28;20045;-74
2021/05/14 02:43:07;;;;;;;3.97;2.10;;;;;;;8.83;77.95;95472.38;5012553;28;20058;-73
2021/05/14 02:45:33;;;;;;;6.63;1.92;;;;;;;8.81;77.88;95469.19;5012196;28;20046;-73
2021/05/14 02:48:00;;;;;;;7.15;2.25;;;;;;;8.76;77.69;95472.09;5012752;28;20053;-72
2021/05/14 02:50:26;;;;;;;2.92;1.58;;;;;;;8.77;78.17;95475.59;5011632;28;20046;-73
2021/05/14 02:52:52;;;;;;;6.72;2.55;;;;;;;8.73;77.85;95474.69;5012416;28;20504;-74
2021/05/14 02:55:19;;;;;;;5.43;2.83;;;;;;;8.63;78.32;95483.97;5011815;28;20044;-73
2021/05/14 02:57:46;;;;;;;3.25;1.95;;;;;;;8.62;78.24;95485.91;5012002;28;20049;-73
2021/05/14 03:00:13;;;;;;;3.05;1.67;;;;;;;8.60;77.70;95481.91;5011994;28;20042;-73
2021/05/14 03:02:39;;;;;;;5.03;2.45;;;;;;;8.58;77.70;95482.25;5011777;28;20046;-72
2021/05/14 03:05:08;;;;;;;2.58;1.50;;;;;;;8.57;77.77;95479.88;5012202;28;20049;-73
2021/05/14 03:07:34;;;;;;;4.65;2.10;;;;;;;8.55;77.42;95477.47;5011408;28;20123;-73
2021/05/14 03:10:00;;;;;;;4.38;1.88;;;;;;;8.54;77.81;95484.00;5012353;28;20508;-73
2021/05/14 03:12:27;;;;;;;2.50;1.70;;;;;;;8.56;76.95;95484.50;5011044;28;20077;-73
2021/05/14 03:14:53;;;;;;;3.72;2.00;;;;;;;8.50;76.88;95487.69;5012367;28;20125;-73
2021/05/14 03:17:19;;;;;;;4.65;1.80;;;;;;;8.50;77.01;95485.78;5011563;28;20060;-73
2021/05/14 03:19:44;;;;;;;5.25;2.20;;;;;;;8.47;76.83;95486.44;5011783;28;20136;-75
2021/05/14 03:22:11;;;;;;;5.57;2.05;;;;;;;8.43;76.85;95485.50;5011443;28;20141;-73
2021/05/14 03:24:37;;;;;;;3.03;1.92;;;;;;;8.39;77.00;95484.53;5011416;28;20042;-73
2021/05/14 03:27:04;;;;;;;5.03;1.60;;;;;;;8.40;76.78;95488.84;5011579;28;20049;-73
2021/05/14 03:29:30;;;;;;;4.50;2.28;;;;;;;8.33;76.67;95492.03;5010898;28;20584;-73
2021/05/14 03:31:56;;;;;;;3.40;1.60;;;;;;;8.30;76.59;95486.47;5012305;28;20124;-73
2021/05/14 03:34:22;;;;;;;3.25;1.48;;;;;;;8.26;76.26;95491.75;5010525;28;20136;-73
2021/05/14 03:36:48;;;;;;;3.60;1.88;;;;;;;8.21;76.27;95489.22;5012036;28;20049;-73
2021/05/14 03:39:15;;;;;;;4.75;2.38;;;;;;;8.21;75.90;95491.94;5010757;28;20054;-73
2021/05/14 03:41:47;;;;;;;6.43;1.98;;;;;;;8.17;75.78;95495.59;5011463;28;20042;-73
2021/05/14 03:44:14;;;;;;;3.67;1.50;;;;;;;8.17;76.28;95498.31;5011043;28;20493;-73
2021/05/14 03:46:40;;;;;;;4.28;2.20;;;;;;;8.13;76.12;95487.31;5011261;28;20050;-73
2021/05/14 03:49:06;;;;;;;6.00;1.98;;;;;;;8.14;76.61;95496.25;5010851;28;20120;-72
2021/05/14 03:51:35;;;;;;;5.25;2.05;;;;;;;8.07;76.22;95494.81;5010964;28;20050;-73
2021/05/14 03:54:02;;;;;;;3.28;1.65;;;;;;;8.03;76.01;95493.88;5011850;28;20046;-72
2021/05/14 03:56:29;;;;;;;3.88;1.50;;;;;;;8.06;76.22;95495.94;5010329;28;20034;-73
2021/05/14 03:58:55;;;;;;;4.57;1.90;;;;;;;8.02;75.77;95489.56;5011843;28;20046;-73
2021/05/14 04:01:21;;;;;;;3.70;1.80;;;;;;;8.01;75.91;95487.97;5010370;28;20133;-73
2021/05/14 04:03:49;;;;;;;6.45;2.35;;;;;;;8.01;75.92;95496.13;5011467;28;20053;-73
2021/05/14 04:06:15;;;;;;;5.47;2.05;;;;;;;7.89;76.07;95498.69;5010454;28;20050;-73
2021/05/14 04:08:41;;;;;;;5.60;2.30;;;;;;;7.83;77.11;95500.00;5010872;28;20053;-73
2021/05/14 04:11:26;;;;;;;3.50;1.80;;;;;;;7.84;76.36;95496.16;5010548;28;20050;-73
2021/05/14 04:16:38;;;;;;;3.55;1.88;;;;;;;7.91;76.09;95498.38;5011355;28;20052;-69
2021/05/14 04:19:04;;;;;;;4.53;2.20;;;;;;;7.88;76.12;95502.50;5008507;28;20050;-73
2021/05/14 04:21:30;;;;;;;4.60;2.15;;;;;;;7.85;75.94;95500.47;5010554;28;20049;-73
2021/05/14 04:23:56;;;;;;;4.57;1.80;;;;;;;7.84;75.79;95502.38;5010492;28;20053;-73
2021/05/14 04:26:22;;;;;;;4.88;2.03;;;;;;;7.79;76.10;95507.97;5010312;28;20046;-74
2021/05/14 04:28:48;;;;;;;5.43;1.90;;;;;;;7.82;76.22;95503.78;5010834;28;20088;-73
2021/05/14 04:31:15;;;;;;;4.85;2.08;;;;;;;7.86;76.33;95504.75;5010195;28;20046;-74
2021/05/14 04:33:41;;;;;;;3.50;2.13;;;;;;;7.91;76.06;95504.59;5011295;28;20057;-75
2021/05/14 04:36:07;;;;;;;7.13;2.60;;;;;;;7.86;75.81;95504.75;5009672;28;20054;-74
2021/05/14 04:38:33;;;;;;;5.57;2.15;;;;;;;7.88;76.04;95502.50;5011120;28;20049;-73
2021/05/14 04:40:59;;;;;;;3.88;1.90;;;;;;;7.90;75.94;95511.13;5010545;28;20044;-73
2021/05/14 04:43:25;;;;;;;3.38;1.50;;;;;;;7.90;75.64;95507.63;5014391;28;20133;-73
2021/05/14 04:45:51;;;;;;;3.63;1.80;;;;;;;7.90;75.46;95505.72;5014210;28;20041;-73
2021/05/14 04:48:18;;;;;;;5.65;2.60;;;;;;;7.88;75.46;95507.94;5013977;28;20080;-73
2021/05/14 04:50:44;;;;;;;3.85;2.13;;;;;;;7.87;75.56;95503.63;5014484;28;20096;-74
2021/05/14 04:53:13;;;;;;;7.43;2.50;;;;;;;7.85;75.56;95500.47;5014014;28;20053;-73
2021/05/14 04:55:39;;;;;;;4.57;1.83;;;;;;;7.91;76.54;95507.28;5014476;28;20052;-74
2021/05/14 04:58:05;;;;;;;4.35;2.20;;;;;;;7.94;75.68;95493.13;5004482;28;20045;-72
2021/05/14 05:00:32;;;;;;;3.92;2.00;;;;;;;7.98;75.57;95496.75;5014704;28;20053;-74
2021/05/14 05:03:00;;;;;;;4.35;1.85;;;;;;;8.00;75.51;95494.53;5013717;28;20046;-74
2021/05/14 05:05:27;;;;;;;4.82;1.80;;;;;;;8.03;76.21;95487.66;5014233;28;20043;-74
2021/05/14 05:07:54;;;;;;;3.13;1.60;;;;;;;8.04;75.80;95484.63;5013589;28;20041;-75
2021/05/14 05:10:20;;;;;;;6.15;2.55;;;;;;;8.11;75.84;95501.19;5013623;28;20044;-73
2021/05/14 05:12:46;;;;;;;3.53;1.50;;;;;;;8.18;75.98;95495.28;5013810;28;20069;-74
2021/05/14 05:15:14;;;;;;;5.70;2.20;;;;;;;8.24;76.34;95490.47;5013828;28;20139;-75
2021/05/14 05:17:40;;;;;;;5.95;2.20;;;;;;;8.30;75.54;95486.47;5013760;28;20125;-74
2021/05/14 05:20:08;;;;;;;5.07;2.10;;;;;;;8.39;75.58;95492.69;5013381;28;20124;-74
2021/05/14 05:22:35;;;;;;;3.92;1.90;;;;;;;8.47;74.98;95499.22;5014018;28;20496;-74
2021/05/14 05:25:01;;;;;;;3.70;2.00;;;;;;;8.48;74.57;95493.47;5014317;28;20049;-74
2021/05/14 05:27:27;;;;;;;4.85;1.90;;;;;;;8.59;74.52;95500.13;5014231;28;20041;-75
2021/05/14 05:29:53;;;;;;;3.35;1.80;;;;;;;8.62;75.09;95504.91;5013010;28;20489;-75
2021/05/14 05:32:19;;;;;;;2.65;1.60;;;;;;;8.69;73.75;95492.72;5013950;28;20133;-75
2021/05/14 05:34:45;;;;;;;5.18;1.77;;;;;;;8.75;73.42;95496.84;5013159;28;20037;-74
2021/05/14 05:37:11;;;;;;;4.30;2.03;;;;;;;8.82;73.88;95494.41;5013331;28;20069;-76
2021/05/14 05:39:38;;;;;;;1.77;1.27;;;;;;;8.91;73.82;95488.94;5013276;28;20049;-74
2021/05/14 05:42:05;;;;;;;3.60;1.80;;;;;;;8.96;73.25;95494.19;5013272;28;20487;-74
2021/05/14 05:44:30;;;;;;;4.85;2.10;;;;;;;9.04;74.06;95496.88;5013659;28;20539;-74
2021/05/14 05:46:56;;;;;;;6.32;2.10;;;;;;;9.11;73.74;95504.47;5013339;28;20056;-74
2021/05/14 05:49:23;;;;;;;4.05;1.38;;;;;;;9.21;73.72;95508.75;5013183;28;20046;-74
2021/05/14 05:51:49;;;;;;;4.93;1.83;;;;;;;9.23;72.90;95509.19;5012888;28;20516;-74
2021/05/14 05:54:16;;;;;;;3.20;1.80;;;;;;;9.33;72.37;95506.09;5013619;28;20053;-73
2021/05/14 05:56:44;;;;;;;3.22;1.70;;;;;;;9.40;72.66;95511.81;5012769;28;20037;-74
2021/05/14 05:59:14;;;;;;;4.43;1.60;;;;;;;9.49;71.05;95509.81;5013289;28;20424;-75
2021/05/14 06:01:41;;;;;;;3.75;1.45;;;;;;;9.55;70.86;95510.41;5013059;28;20553;-74
2021/05/14 06:04:07;;;;;;;2.20;1.35;;;;;;;9.64;71.50;95520.09;5012966;28;20046;-74
2021/05/14 06:06:33;;;;;;;3.78;1.33;;;;;;;9.72;71.66;95514.94;5013181;28;20050;-71
2021/05/14 06:08:59;;;;;;;3.15;1.80;;;;;;;9.78;72.29;95517.09;5012765;28;20046;-74
2021/05/14 06:11:25;;;;;;;5.03;1.58;;;;;;;9.88;71.33;95516.69;5013077;28;20046;-72
2021/05/14 06:13:52;;;;;;;3.42;1.67;;;;;;;9.95;71.18;95524.31;5012697;28;20053;-71
2021/05/14 06:16:19;;;;;;;4.07;1.38;;;;;;;10.02;72.03;95527.28;5013180;28;20221;-71
2021/05/14 06:18:48;;;;;;;4.80;1.75;;;;;;;10.05;70.86;95521.19;5012523;28;20038;-72
2021/05/14 06:21:14;;;;;;;4.03;1.83;;;;;;;10.13;70.47;95519.53;5011687;28;20068;-73
2021/05/14 06:23:40;;;;;;;3.08;1.50;;;;;;;10.17;69.33;95526.66;5012610;28;20041;-73
2021/05/14 06:26:07;;;;;;;2.83;1.60;;;;;;;10.22;69.40;95524.84;5012688;28;20071;-73
2021/05/14 06:28:33;;;;;;;2.22;1.30;;;;;;;10.27;68.93;95519.22;5012933;28;20049;-74
2021/05/14 06:30:59;;;;;;;4.57;1.70;;;;;;;10.34;72.42;95524.94;5012760;28;20038;-72
2021/05/14 06:33:27;;;;;;;3.00;1.48;;;;;;;10.40;71.18;95526.31;5012538;28;20050;-74
2021/05/14 06:35:53;;;;;;;2.40;1.40;;;;;;;10.49;69.36;95529.72;5012299;28;20041;-74
2021/05/14 06:38:19;;;;;;;3.20;1.13;;;;;;;10.51;69.03;95532.91;5012638;28;20050;-71
2021/05/14 06:40:45;;;;;;;3.40;1.58;;;;;;;10.57;70.21;95526.09;5012189;28;20042;-72
2021/05/14 06:43:11;;;;;;;3.20;1.38;;;;;;;10.61;68.36;95532.47;5012743;28;20393;-72
2021/05/14 06:45:37;;;;;;;2.33;1.38;;;;;;;10.69;67.86;95528.03;5012342;28;20046;-72
2021/05/14 06:48:06;;;;;;;1.38;1.10;;;;;;;10.77;68.66;95534.53;5012312;28;20065;-72
2021/05/14 06:50:33;;;;;;;1.77;1.17;;;;;;;10.81;68.80;95530.00;5012126;28;20045;-71
2021/05/14 06:53:01;;;;;;;2.78;1.73;;;;;;;10.86;69.72;95543.41;5012339;28;20042;-71
2021/05/14 06:55:27;;;;;;;8.18;1.63;;;;;;;10.94;68.52;95539.75;5012069;28;20045;-71
2021/05/14 06:57:53;;;;;;;3.05;1.20;;;;;;;10.99;67.40;95542.25;5012036;28;20041;-71
2021/05/14 07:00:20;;;;;;;4.38;1.60;;;;;;;11.06;68.22;95545.19;5011987;28;20049;-72
2021/05/14 07:02:46;;;;;;;3.28;1.45;;;;;;;11.09;70.35;95546.47;5011527;28;20050;-72
2021/05/14 07:05:14;;;;;;;1.45;1.10;;;;;;;11.21;68.94;95552.69;5011651;28;20046;-73
2021/05/14 07:07:40;;;;;;;3.28;1.30;;;;;;;11.32;68.02;95549.50;5011455;28;20046;-72
2021/05/14 07:10:07;;;;;;;4.82;1.25;;;;;;;11.39;69.39;95549.75;5012100;28;20050;-72
2021/05/14 07:12:35;;;;;;;4.15;1.40;;;;;;;11.46;69.33;95544.50;5010245;28;20045;-72
2021/05/14 07:15:01;;;;;;;2.35;1.27;;;;;;;11.50;68.10;95561.78;5012061;28;20064;-72
2021/05/14 07:17:27;;;;;;;3.67;1.30;;;;;;;11.52;66.24;95547.78;5011385;28;20506;-72
2021/05/14 07:19:53;;;;;;;1.92;1.30;;;;;;;11.58;67.00;95555.38;5012600;28;20044;-72
2021/05/14 07:22:20;;;;;;;1.30;1.00;;;;;;;11.69;68.51;95555.72;5011759;28;20137;-72
2021/05/14 07:24:46;;;;;;;5.18;1.27;;;;;;;11.75;66.03;95557.88;5011550;28;20045;-72
2021/05/14 07:27:13;;;;;;;2.95;1.00;;;;;;;11.80;64.86;95554.13;5011510;28;20046;-72
2021/05/14 07:29:39;;;;;;;1.80;1.10;;;;;;;11.84;65.30;95554.22;5011140;28;20121;-71
2021/05/14 07:32:06;;;;;;;3.72;1.40;;;;;;;11.85;66.27;95544.91;5011847;28;20061;-71
2021/05/14 07:34:32;;;;;;;3.08;1.27;;;;;;;11.97;66.87;95542.16;5011153;28;20038;-72
2021/05/14 07:36:58;;;;;;;3.38;1.20;;;;;;;12.04;63.08;95552.47;5011974;28;20050;-72
2021/05/14 07:39:25;;;;;;;3.05;1.08;;;;;;;12.06;64.40;95545.53;5010659;28;20069;-73
2021/05/14 07:41:51;;;;;;;3.88;1.50;;;;;;;12.18;69.15;95548.22;5011961;28;20035;-72
2021/05/14 07:44:20;;;;;;;2.85;1.15;;;;;;;12.34;69.63;95558.38;5010936;28;20092;-71
2021/05/14 07:46:46;;;;;;;1.77;1.00;;;;;;;12.54;66.18;95549.19;5011448;28;20042;-72
2021/05/14 07:49:13;;;;;;;3.08;1.10;;;;;;;12.69;65.71;95555.81;5010977;28;20562;-72
2021/05/14 07:51:39;;;;;;;2.88;0.90;;;;;;;12.85;62.96;95542.16;5011060;28;20049;-72
2021/05/14 07:54:05;;;;;;;2.25;0.90;;;;;;;13.12;60.90;95544.00;5011134;28;20042;-72
2021/05/14 07:56:32;;;;;;;4.25;1.00;;;;;;;14.29;59.65;95551.28;5010677;28;20096;-73
2021/05/14 07:58:58;;;;;;;6.22;0.90;;;;;;;15.79;54.47;95542.91;5011825;28;20046;-72
2021/05/14 08:01:24;;;;;;;2.20;1.27;;;;;;;16.76;51.24;95542.13;5010303;28;20045;-72
2021/05/14 08:03:50;;;;;;;1.20;0.80;;;;;;;17.41;46.34;95540.72;5011432;28;20575;-72
2021/05/14 08:06:19;;;;;;;1.85;0.77;;;;;;;18.40;45.25;95542.50;5010497;28;20046;-73
2021/05/14 08:08:45;;;;;;;3.15;1.00;;;;;;;19.24;47.50;95540.34;5010895;28;20679;-72
2021/05/14 08:11:11;;;;;;;1.65;0.75;;;;;;;19.77;42.54;95542.31;5010630;28;20041;-72
2021/05/14 08:13:37;;;;;;;1.10;0.70;;;;;;;19.16;40.50;95538.75;5010888;28;20037;-72
2021/05/14 08:16:04;;;;;;;2.08;1.10;;;;;;;18.70;41.70;95540.28;5009905;28;20052;-72
2021/05/14 08:18:30;;;;;;;4.93;1.30;;;;;;;18.94;42.63;95538.72;5010264;28;20389;-72
2021/05/14 08:20:56;;;;;;;3.03;0.88;;;;;;;18.60;42.66;95538.25;5011554;28;20048;-72
2021/05/14 08:23:22;;;;;;;2.72;1.13;;;;;;;18.16;42.67;95532.94;5010863;28;20142;-72
2021/05/14 08:25:49;;;;;;;2.58;0.80;;;;;;;18.71;48.10;95536.31;5011368;28;20120;-72
2021/05/14 08:28:15;;;;;;;1.35;0.70;;;;;;;18.77;41.13;95532.00;5009811;28;20054;-73
2021/05/14 08:30:44;;;;;;;1.42;0.95;;;;;;;19.44;44.30;95543.50;5010847;28;20045;-72
2021/05/14 08:33:10;;;;;;;2.78;0.85;;;;;;;20.54;42.66;95542.50;5010245;28;20088;-72
2021/05/14 08:35:37;;;;;;;3.13;1.08;;;;;;;20.57;37.44;95536.97;5010767;28;20042;-73
2021/05/14 08:38:03;;;;;;;8.77;1.30;;;;;;;19.78;42.52;95541.13;5010284;28;20053;-73
2021/05/14 08:40:29;;;;;;;1.60;0.80;;;;;;;19.93;41.48;95530.84;5010566;28;20041;-72
2021/05/14 08:42:56;;;;;;;2.13;0.70;;;;;;;19.98;37.93;95539.50;5011078;28;20134;-72
2021/05/14 08:45:22;;;;;;;3.22;1.20;;;;;;;19.81;41.29;95535.59;5009722;28;20061;-72
2021/05/14 08:47:54;;;;;;;1.75;0.98;;;;;;;19.74;38.99;95543.91;5011071;28;20050;-73
2021/05/14 08:50:20;;;;;;;1.98;0.90;;;;;;;20.25;36.36;95542.56;5009798;28;20500;-72
2021/05/14 08:52:47;;;;;;;2.80;1.30;;;;;;;20.42;36.18;95546.47;5010816;28;20046;-72
2021/05/14 08:55:15;;;;;;;1.15;0.70;;;;;;;20.76;35.16;95548.72;5009735;28;20456;-71
2021/05/14 08:57:43;;;;;;;4.07;0.85;;;;;;;21.41;34.66;95541.59;5010614;28;20088;-72
2021/05/14 09:00:11;;;;;;;3.28;0.90;;;;;;;21.50;36.38;95544.66;5010045;28;20054;-72
2021/05/14 09:02:38;;;;;;;3.33;1.20;;;;;;;21.26;34.58;95538.13;5010301;28;20189;-74
2021/05/14 09:05:24;;;;;;;1.35;0.60;;;;;;;21.30;37.13;95532.59;5010342;28;20065;-74
2021/05/14 09:07:51;;;;;;;3.20;1.00;;;;;;;20.53;38.27;95536.19;5009526;28;20053;-71
2021/05/14 09:10:17;;;;;;;1.02;0.75;;;;;;;20.44;39.92;95537.78;5010328;28;20061;-73
2021/05/14 09:12:44;;;;;;;2.03;0.77;;;;;;;19.85;38.98;95535.59;5009956;28;20046;-73
2021/05/14 09:15:21;;;;;;;2.13;0.93;;;;;;;19.83;40.62;95526.91;5010269;28;20056;-72
2021/05/14 09:18:11;;;;;;;3.35;0.90;;;;;;;19.36;41.95;95531.66;5010214;28;20056;-74
2021/05/14 09:20:40;;;;;;;3.53;1.50;;;;;;;19.19;43.98;95529.69;5008508;28;20038;-71
2021/05/14 09:23:28;;;;;;;1.50;0.80;;;;;;;19.00;42.95;95520.63;5010318;28;20057;-71
2021/05/14 09:25:55;;;;;;;2.80;0.90;;;;;;;18.73;43.77;95530.41;5009979;28;20582;-72
2021/05/14 09:28:23;;;;;;;3.70;1.33;;;;;;;18.25;42.77;95525.91;5012507;28;20049;-72
2021/05/14 09:31:14;;;;;;;2.13;0.95;;;;;;;18.14;44.43;95521.53;5013608;28;20041;-71
2021/05/14 09:33:42;;;;;;;1.63;1.10;;;;;;;17.90;42.58;95526.50;4998703;28;20121;-73
2021/05/14 09:36:12;;;;;;;5.65;1.10;;;;;;;17.56;45.67;95522.38;5013402;28;20520;-72
2021/05/14 09:38:42;;;;;;;3.65;1.90;;;;;;;17.38;47.66;95523.03;5013182;28;20056;-72
2021/05/14 09:41:26;;;;;;;4.20;1.27;;;;;;;17.55;48.68;95523.53;5013765;28;20054;-72
2021/05/14 09:43:56;;;;;;;5.55;1.23;;;;;;;17.69;49.48;95520.84;5012922;28;20042;-72
2021/05/14 09:46:36;;;;;;;5.93;1.40;;;;;;;17.70;47.47;95520.50;5013498;28;20054;-72
2021/05/14 09:49:04;;;;;;;2.15;1.00;;;;;;;17.84;45.97;95519.81;5012835;28;20037;-73
2021/05/14 09:51:32;;;;;;;7.80;1.70;;;;;;;17.87;46.11;95521.78;5013175;28;20050;-72
2021/05/14 09:54:17;;;;;;;3.20;1.25;;;;;;;18.12;46.63;95515.63;5013478;28;20104;-71
2021/05/14 09:56:44;;;;;;;3.55;1.00;;;;;;;18.38;49.18;95520.84;5012570;28;20042;-72
2021/05/14 09:59:10;;;;;;;3.15;1.00;;;;;;;18.42;43.71;95510.59;5013192;28;20092;-71
2021/05/14 10:01:36;;;;;;;2.00;0.90;;;;;;;18.06;43.69;95514.41;5012782;28;20125;-71
2021/05/14 10:04:02;;;;;;;3.08;1.25;;;;;;;18.07;48.92;95510.50;5013000;28;20049;-71
2021/05/14 10:06:32;;;;;;;1.35;0.90;;;;;;;17.98;43.14;95517.13;5012832;28;20400;-75
2021/05/14 10:09:06;;;;;;;2.30;1.10;;;;;;;18.21;44.70;95518.78;5013112;28;20046;-73
2021/05/14 10:11:33;;;;;;;0.55;0.50;;;;;;;18.17;44.15;95512.50;5013275;28;20480;-72
2021/05/14 10:13:59;;;;;;;1.10;0.98;;;;;;;17.86;43.37;95514.72;5012828;28;20456;-74
2021/05/14 10:16:25;;;;;;;1.20;0.70;;;;;;;17.65;43.89;95515.34;5012877;28;20045;-72
2021/05/14 10:18:53;;;;;;;2.53;0.70;;;;;;;17.31;46.62;95513.91;5013447;28;20405;-71
2021/05/14 10:21:20;;;;;;;2.65;0.90;;;;;;;17.20;46.76;95516.59;5013029;28;20053;-71
2021/05/14 10:23:48;;;;;;;2.70;1.10;;;;;;;17.33;49.79;95520.63;5012443;28;20046;-72
2021/05/14 10:26:14;;;;;;;2.35;1.45;;;;;;;17.26;45.69;95504.06;5012721;28;20049;-72
2021/05/14 10:28:45;;;;;;;2.90;1.13;;;;;;;17.08;45.24;95509.44;5012309;28;20070;-71
2021/05/14 10:31:23;;;;;;;4.18;1.42;;;;;;;16.84;45.34;95510.00;5011921;28;20108;-72
2021/05/14 10:33:54;;;;;;;2.50;1.10;;;;;;;17.06;43.72;95510.97;5012543;28;20045;-72
2021/05/14 10:36:43;;;;;;;2.38;1.30;;;;;;;17.14;48.14;95507.13;4991875;28;20038;-72
2021/05/14 10:39:13;;;;;;;2.67;1.10;;;;;;;17.10;46.51;95506.28;4992208;28;20058;-72
2021/05/14 10:41:53;;;;;;;2.65;0.95;;;;;;;17.20;47.76;95500.88;4992320;28;20096;-72
2021/05/14 10:44:49;;;;;;;3.88;1.05;;;;;;;17.57;49.12;95502.69;4992496;28;20046;-72
2021/05/14 10:47:48;;;;;;;1.48;0.85;;;;;;;17.92;46.79;95504.13;4992427;28;20046;-72
2021/05/14 10:50:33;;;;;;;1.75;0.80;;;;;;;18.38;49.38;95512.56;4991589;28;20097;-71
2021/05/14 10:53:18;;;;;;;1.75;0.80;;;;;;;18.68;43.95;95506.75;4992998;28;20046;-72
2021/05/14 10:55:48;;;;;;;1.52;0.80;;;;;;;18.58;45.27;95501.19;4992336;28;20092;-72
2021/05/14 10:58:41;;;;;;;1.52;1.00;;;;;;;18.41;45.48;95500.75;4991965;28;20046;-72
2021/05/14 11:01:07;;;;;;;1.23;0.80;;;;;;;18.08;41.54;95503.78;4991488;28;20050;-71
2021/05/14 11:03:34;;;;;;;1.48;0.73;;;;;;;17.79;44.53;95500.09;4991802;28;20274;-73
2021/05/14 11:06:11;;;;;;;1.98;0.82;;;;;;;17.44;49.02;95502.25;5012189;28;20100;-74
2021/05/14 11:08:43;;;;;;;2.20;0.80;;;;;;;17.64;47.20;95499.19;5011371;28;20456;-74
2021/05/14 11:11:12;;;;;;;1.75;0.88;;;;;;;17.89;47.33;95502.13;5011650;28;20088;-73
2021/05/14 11:13:45;;;;;;;1.60;0.70;;;;;;;18.13;45.39;95489.66;5011710;28;20558;-74
2021/05/14 11:16:30;;;;;;;2.72;1.25;;;;;;;18.30;39.02;95482.63;5011126;28;20050;-73
2021/05/14 11:18:57;;;;;;;2.00;1.00;;;;;;;18.24;38.71;95487.72;5011052;28;20045;-71
2021/05/14 11:21:23;;;;;;;1.23;0.93;;;;;;;18.32;39.08;95481.03;5010767;28;20049;-73
2021/05/14 11:24:06;;;;;;;4.10;1.58;;;;;;;18.23;39.07;95483.41;5012130;28;20056;-73
2021/05/14 11:26:32;;;;;;;1.08;0.73;;;;;;;18.08;39.08;95477.03;5011228;28;20045;-73
2021/05/14 11:28:58;;;;;;;3.78;1.13;;;;;;;17.72;40.43;95487.06;5011529;28;20058;-73
2021/05/14 11:31:25;;;;;;;1.33;0.63;;;;;;;17.46;39.48;95486.13;5011099;28;20095;-73
2021/05/14 11:33:53;;;;;;;3.20;1.20;;;;;;;17.25;40.14;95488.72;5011698;28;20052;-73
2021/05/14 11:36:20;;;;;;;2.88;0.90;;;;;;;17.00;43.23;95488.53;5011436;28;20061;-73
2021/05/14 11:38:47;;;;;;;4.85;1.10;;;;;;;16.93;45.86;95491.22;5011030;28;20045;-73
2021/05/14 11:41:18;;;;;;;1.38;0.85;;;;;;;16.81;46.03;95495.06;5011411;28;20416;-73
2021/05/14 11:43:56;;;;;;;1.23;0.85;;;;;;;16.77;45.47;95493.44;5010901;28;20507;-73
2021/05/14 11:46:26;;;;;;;2.28;1.20;;;;;;;16.79;47.44;95489.13;5011113;28;20128;-73